createdAt,value
2022-11-12T00:06:57.279Z,40.90
2022-11-12T00:17:03.678Z,37.50
2022-11-12T00:27:10.621Z,42.50
2022-11-12T00:37:18.893Z,47.70
2022-11-12T00:47:26.292Z,44.50
2022-11-12T00:57:33.285Z,46.30
2022-11-12T01:07:40.705Z,48.30
2022-11-12T01:17:47.798Z,52.00
2022-11-12T01:27:55.026Z,42.20
2022-11-12T01:38:02.016Z,51.20
2022-11-12T01:48:09.464Z,41.20
2022-11-12T01:58:19.622Z,42.90
2022-11-12T02:08:28.303Z,43.50
2022-11-12T02:18:35.497Z,41.10
2022-11-12T02:28:41.800Z,49.90
2022-11-12T02:38:48.857Z,59.20
2022-11-12T02:48:55.838Z,37.30
2022-11-12T02:59:03.547Z,42.40
2022-11-12T03:09:12.442Z,39.00
2022-11-12T03:19:19.756Z,34.00
2022-11-12T03:29:26.587Z,32.90
2022-11-12T03:39:33.583Z,36.20
2022-11-12T03:49:40.911Z,37.00
2022-11-12T03:59:47.892Z,35.50
2022-11-12T04:09:55.078Z,33.40
2022-11-12T04:20:19.761Z,42.10
2022-11-12T04:30:27.242Z,44.80
2022-11-12T04:40:52.486Z,47.20
2022-11-12T04:51:01.945Z,29.90
2022-11-12T05:01:09.153Z,35.30
2022-11-12T05:11:16.698Z,32.40
2022-11-12T05:21:43.581Z,33.50
2022-11-12T05:31:51.009Z,28.10
2022-11-12T05:42:12.518Z,29.80
2022-11-12T05:52:20.318Z,30.40
2022-11-12T06:02:27.391Z,37.80
2022-11-12T06:12:34.744Z,40.80
2022-11-12T06:22:41.997Z,33.40
2022-11-12T06:32:48.672Z,32.40
2022-11-12T06:42:58.158Z,41.70
2022-11-12T06:53:05.274Z,64.30
2022-11-12T07:03:14.757Z,65.70
2022-11-12T07:13:21.908Z,53.40
2022-11-12T07:23:30.473Z,55.80
2022-11-12T07:33:37.883Z,37.90
2022-11-12T07:43:46.722Z,43.50
2022-11-12T07:53:59.479Z,44.40
2022-11-12T08:04:09.923Z,33.10
2022-11-12T08:14:17.006Z,29.30
2022-11-12T08:24:24.185Z,25.00
2022-11-12T08:34:31.263Z,35.00
2022-11-12T08:44:38.278Z,29.60
2022-11-12T08:54:45.242Z,20.60
2022-11-12T09:04:52.273Z,20.50
2022-11-12T09:15:09.607Z,22.10
2022-11-12T09:25:26.218Z,25.60
2022-11-12T09:35:32.880Z,25.20
2022-11-12T09:45:40.542Z,23.70
2022-11-12T09:55:51.663Z,31.40
2022-11-12T10:06:06.012Z,29.10
2022-11-12T10:16:48.195Z,27.40
2022-11-12T10:26:58.885Z,32.70
2022-11-12T10:37:09.168Z,29.70
2022-11-12T10:47:33.239Z,31.60
2022-11-12T10:57:40.316Z,34.60
2022-11-12T11:07:52.265Z,30.50
2022-11-12T11:17:59.743Z,28.30
2022-11-12T11:28:06.990Z,33.60
2022-11-12T11:38:21.657Z,45.20
2022-11-12T11:48:32.901Z,31.60
2022-11-12T11:58:59.628Z,36.40
2022-11-12T12:09:08.177Z,34.40
2022-11-12T12:19:16.241Z,32.30
2022-11-12T12:29:24.720Z,33.30
2022-11-12T12:39:31.618Z,29.40
2022-11-12T12:49:41.621Z,30.30
2022-11-12T12:59:49.341Z,30.50
2022-11-12T13:10:32.886Z,93.00
2022-11-12T13:21:04.495Z,45.50
2022-11-12T13:31:25.993Z,30.50
2022-11-12T13:41:52.527Z,32.90
2022-11-12T13:52:01.051Z,34.10
2022-11-12T14:02:17.682Z,31.10
2022-11-12T14:12:35.954Z,34.70
2022-11-12T14:22:40.313Z,27.40
2022-11-12T14:32:49.163Z,40.30
2022-11-12T14:42:56.625Z,50.90
2022-11-12T14:53:07.282Z,46.20
2022-11-12T15:03:16.547Z,48.70
2022-11-12T15:13:28.539Z,56.90
2022-11-12T15:23:35.157Z,59.10
2022-11-12T15:33:42.644Z,93.00
2022-11-12T15:43:49.783Z,96.70
2022-11-12T15:53:56.945Z,59.20
2022-11-12T16:04:04.391Z,68.10
2022-11-12T16:14:15.680Z,82.60
2022-11-12T16:24:22.671Z,51.90
2022-11-12T16:34:29.444Z,67.90
2022-11-12T16:44:36.571Z,55.80
2022-11-12T16:54:43.760Z,68.60
2022-11-12T17:04:50.837Z,67.80
2022-11-12T17:14:57.866Z,84.80
2022-11-12T17:25:05.872Z,83.00
2022-11-12T17:35:13.088Z,85.30
2022-11-12T17:45:20.451Z,80.40
2022-11-12T17:55:27.503Z,60.70
2022-11-12T18:05:34.632Z,64.70
2022-11-12T18:15:41.964Z,65.30
2022-11-12T18:25:49.021Z,65.30
2022-11-12T18:36:01.586Z,72.80
2022-11-12T18:46:10.612Z,59.70
2022-11-12T18:56:19.643Z,48.00
2022-11-12T19:06:27.510Z,50.50
2022-11-12T19:16:34.958Z,50.80
2022-11-12T19:26:42.275Z,52.00
2022-11-12T19:37:00.600Z,48.90
2022-11-12T19:47:16.691Z,55.20
2022-11-12T19:57:23.309Z,48.20
2022-11-12T20:07:30.664Z,52.60
2022-11-12T20:17:39.364Z,46.30
2022-11-12T20:27:46.408Z,62.60
2022-11-12T20:37:53.547Z,47.50
2022-11-12T20:48:00.676Z,58.10
2022-11-12T20:58:09.987Z,65.10
2022-11-12T21:08:17.051Z,57.50
2022-11-12T21:18:28.334Z,55.20
2022-11-12T21:28:35.395Z,50.80
2022-11-12T21:38:41.864Z,51.40
2022-11-12T21:48:54.706Z,52.80
2022-11-12T21:59:04.589Z,65.50
2022-11-12T22:09:11.745Z,65.10
2022-11-12T22:19:21.580Z,65.20
2022-11-12T22:29:28.779Z,65.60
2022-11-12T22:39:35.775Z,62.90
2022-11-12T22:49:42.893Z,71.10
2022-11-12T22:59:50.055Z,63.80
2022-11-12T23:09:57.950Z,61.50
2022-11-12T23:20:05.126Z,71.10
2022-11-12T23:30:13.533Z,89.40
2022-11-12T23:40:19.841Z,77.40
2022-11-12T23:50:27.179Z,82.60
